sensor_id;sensor_type;location;lat;lon;timestamp;P1;durP1;ratioP1;P2;durP2;ratioP2
3781;SDS011;6881;49.962;7.718;2023-03-29T00:00:02;4.40;;;2.93;;
3781;SDS011;6881;49.962;7.718;2023-03-29T00:02:32;2.97;;;2.67;;
3781;SDS011;6881;49.962;7.718;2023-03-29T00:04:57;3.03;;;2.30;;
3781;SDS011;6881;49.962;7.718;2023-03-29T00:07:28;2.87;;;2.67;;
3781;SDS011;6881;49.962;7.718;2023-03-29T00:09:54;5.17;;;3.03;;
3781;SDS011;6881;49.962;7.718;2023-03-29T00:12:20;4.17;;;2.90;;
3781;SDS011;6881;49.962;7.718;2023-03-29T00:14:45;2.83;;;2.63;;
3781;SDS011;6881;49.962;7.718;2023-03-29T00:17:10;4.17;;;3.07;;
3781;SDS011;6881;49.962;7.718;2023-03-29T00:19:36;3.40;;;2.73;;
3781;SDS011;6881;49.962;7.718;2023-03-29T00:22:02;4.27;;;3.27;;
3781;SDS011;6881;49.962;7.718;2023-03-29T00:24:29;3.37;;;2.80;;
3781;SDS011;6881;49.962;7.718;2023-03-29T00:26:55;3.67;;;3.20;;
3781;SDS011;6881;49.962;7.718;2023-03-29T00:29:20;5.67;;;2.87;;
3781;SDS011;6881;49.962;7.718;2023-03-29T00:31:45;3.80;;;2.73;;
3781;SDS011;6881;49.962;7.718;2023-03-29T00:34:17;3.73;;;3.30;;
3781;SDS011;6881;49.962;7.718;2023-03-29T00:36:46;3.17;;;2.50;;
3781;SDS011;6881;49.962;7.718;2023-03-29T00:39:15;3.33;;;3.03;;
3781;SDS011;6881;49.962;7.718;2023-03-29T00:41:43;4.47;;;2.80;;
3781;SDS011;6881;49.962;7.718;2023-03-29T00:47:14;5.33;;;3.07;;
3781;SDS011;6881;49.962;7.718;2023-03-29T00:49:42;4.17;;;3.17;;
3781;SDS011;6881;49.962;7.718;2023-03-29T00:52:08;4.60;;;2.43;;
3781;SDS011;6881;49.962;7.718;2023-03-29T00:54:34;3.80;;;2.77;;
3781;SDS011;6881;49.962;7.718;2023-03-29T00:57:02;5.50;;;3.27;;
3781;SDS011;6881;49.962;7.718;2023-03-29T00:59:29;3.70;;;3.00;;
3781;SDS011;6881;49.962;7.718;2023-03-29T01:01:56;5.53;;;3.17;;
3781;SDS011;6881;49.962;7.718;2023-03-29T01:07:33;4.97;;;2.80;;
3781;SDS011;6881;49.962;7.718;2023-03-29T01:10:02;4.53;;;3.00;;
3781;SDS011;6881;49.962;7.718;2023-03-29T01:12:30;3.33;;;2.63;;
3781;SDS011;6881;49.962;7.718;2023-03-29T01:15:10;4.10;;;2.83;;
3781;SDS011;6881;49.962;7.718;2023-03-29T01:17:38;3.80;;;2.00;;
3781;SDS011;6881;49.962;7.718;2023-03-29T01:26:19;3.90;;;2.93;;
3781;SDS011;6881;49.962;7.718;2023-03-29T01:28:54;3.07;;;2.77;;
3781;SDS011;6881;49.962;7.718;2023-03-29T01:31:25;6.40;;;3.23;;
3781;SDS011;6881;49.962;7.718;2023-03-29T01:33:54;5.73;;;3.40;;
3781;SDS011;6881;49.962;7.718;2023-03-29T01:36:34;4.23;;;3.40;;
3781;SDS011;6881;49.962;7.718;2023-03-29T01:39:03;5.03;;;3.10;;
3781;SDS011;6881;49.962;7.718;2023-03-29T01:44:16;2.80;;;2.60;;
3781;SDS011;6881;49.962;7.718;2023-03-29T01:46:52;4.07;;;3.20;;
3781;SDS011;6881;49.962;7.718;2023-03-29T01:49:27;4.90;;;3.00;;
3781;SDS011;6881;49.962;7.718;2023-03-29T01:55:14;4.93;;;3.03;;
3781;SDS011;6881;49.962;7.718;2023-03-29T01:57:44;3.90;;;2.50;;
3781;SDS011;6881;49.962;7.718;2023-03-29T02:00:14;9.63;;;3.23;;
3781;SDS011;6881;49.962;7.718;2023-03-29T02:02:41;3.93;;;3.07;;
3781;SDS011;6881;49.962;7.718;2023-03-29T02:05:09;4.33;;;3.10;;
3781;SDS011;6881;49.962;7.718;2023-03-29T02:07:36;6.40;;;3.40;;
3781;SDS011;6881;49.962;7.718;2023-03-29T02:10:04;4.00;;;3.30;;
3781;SDS011;6881;49.962;7.718;2023-03-29T02:12:30;4.10;;;3.40;;
3781;SDS011;6881;49.962;7.718;2023-03-29T02:14:56;4.00;;;3.23;;
3781;SDS011;6881;49.962;7.718;2023-03-29T02:17:23;3.77;;;3.10;;
3781;SDS011;6881;49.962;7.718;2023-03-29T02:20:32;4.47;;;3.30;;
3781;SDS011;6881;49.962;7.718;2023-03-29T02:25:16;5.17;;;3.20;;
3781;SDS011;6881;49.962;7.718;2023-03-29T02:27:41;4.70;;;3.60;;
3781;SDS011;6881;49.962;7.718;2023-03-29T02:30:07;5.17;;;4.00;;
3781;SDS011;6881;49.962;7.718;2023-03-29T02:32:45;5.50;;;3.93;;
3781;SDS011;6881;49.962;7.718;2023-03-29T02:35:29;8.40;;;4.23;;
3781;SDS011;6881;49.962;7.718;2023-03-29T02:37:58;17.10;;;7.37;;
3781;SDS011;6881;49.962;7.718;2023-03-29T02:40:25;9.60;;;6.33;;
3781;SDS011;6881;49.962;7.718;2023-03-29T02:42:50;8.87;;;5.70;;
3781;SDS011;6881;49.962;7.718;2023-03-29T02:45:19;6.23;;;4.40;;
3781;SDS011;6881;49.962;7.718;2023-03-29T02:47:52;4.30;;;3.90;;
3781;SDS011;6881;49.962;7.718;2023-03-29T02:50:19;4.93;;;3.83;;
3781;SDS011;6881;49.962;7.718;2023-03-29T02:52:49;3.33;;;2.80;;
3781;SDS011;6881;49.962;7.718;2023-03-29T02:55:17;6.00;;;3.30;;
3781;SDS011;6881;49.962;7.718;2023-03-29T02:57:43;4.17;;;3.30;;
3781;SDS011;6881;49.962;7.718;2023-03-29T03:00:08;4.90;;;3.83;;
3781;SDS011;6881;49.962;7.718;2023-03-29T03:02:35;4.47;;;4.03;;
3781;SDS011;6881;49.962;7.718;2023-03-29T03:05:02;4.60;;;3.33;;
3781;SDS011;6881;49.962;7.718;2023-03-29T03:07:28;5.70;;;4.37;;
3781;SDS011;6881;49.962;7.718;2023-03-29T03:09:53;4.93;;;3.67;;
3781;SDS011;6881;49.962;7.718;2023-03-29T03:12:19;7.70;;;3.70;;
3781;SDS011;6881;49.962;7.718;2023-03-29T03:14:44;5.13;;;3.50;;
3781;SDS011;6881;49.962;7.718;2023-03-29T03:17:10;6.13;;;4.23;;
3781;SDS011;6881;49.962;7.718;2023-03-29T03:19:35;3.47;;;3.17;;
3781;SDS011;6881;49.962;7.718;2023-03-29T03:22:01;7.73;;;4.10;;
3781;SDS011;6881;49.962;7.718;2023-03-29T03:24:27;7.50;;;6.37;;
3781;SDS011;6881;49.962;7.718;2023-03-29T03:26:52;19.80;;;11.43;;
3781;SDS011;6881;49.962;7.718;2023-03-29T03:29:18;11.83;;;8.70;;
3781;SDS011;6881;49.962;7.718;2023-03-29T03:31:44;14.73;;;9.50;;
3781;SDS011;6881;49.962;7.718;2023-03-29T03:34:09;10.83;;;7.77;;
3781;SDS011;6881;49.962;7.718;2023-03-29T03:36:35;10.03;;;6.10;;
3781;SDS011;6881;49.962;7.718;2023-03-29T03:39:01;12.37;;;7.10;;
3781;SDS011;6881;49.962;7.718;2023-03-29T03:41:29;6.03;;;5.27;;
3781;SDS011;6881;49.962;7.718;2023-03-29T03:43:55;9.57;;;5.20;;
3781;SDS011;6881;49.962;7.718;2023-03-29T03:46:20;7.03;;;5.23;;
3781;SDS011;6881;49.962;7.718;2023-03-29T03:48:46;5.70;;;4.17;;
3781;SDS011;6881;49.962;7.718;2023-03-29T03:51:12;6.50;;;4.40;;
3781;SDS011;6881;49.962;7.718;2023-03-29T03:53:38;5.37;;;4.10;;
3781;SDS011;6881;49.962;7.718;2023-03-29T03:56:03;3.67;;;3.30;;
3781;SDS011;6881;49.962;7.718;2023-03-29T03:58:36;7.77;;;4.03;;
3781;SDS011;6881;49.962;7.718;2023-03-29T04:01:02;3.77;;;3.20;;
3781;SDS011;6881;49.962;7.718;2023-03-29T04:03:28;5.23;;;4.17;;
3781;SDS011;6881;49.962;7.718;2023-03-29T04:05:54;5.70;;;4.47;;
3781;SDS011;6881;49.962;7.718;2023-03-29T04:08:19;6.07;;;4.13;;
3781;SDS011;6881;49.962;7.718;2023-03-29T04:10:56;6.50;;;3.50;;
3781;SDS011;6881;49.962;7.718;2023-03-29T04:13:22;7.10;;;4.20;;
3781;SDS011;6881;49.962;7.718;2023-03-29T04:15:48;4.43;;;3.73;;
3781;SDS011;6881;49.962;7.718;2023-03-29T04:18:14;4.43;;;4.03;;
3781;SDS011;6881;49.962;7.718;2023-03-29T04:20:40;5.37;;;4.13;;
3781;SDS011;6881;49.962;7.718;2023-03-29T04:23:05;3.10;;;2.80;;
3781;SDS011;6881;49.962;7.718;2023-03-29T04:25:31;4.80;;;4.40;;
3781;SDS011;6881;49.962;7.718;2023-03-29T04:27:56;4.67;;;4.00;;
3781;SDS011;6881;49.962;7.718;2023-03-29T04:30:22;5.00;;;4.13;;
3781;SDS011;6881;49.962;7.718;2023-03-29T04:32:47;3.80;;;3.30;;
3781;SDS011;6881;49.962;7.718;2023-03-29T04:35:12;4.97;;;3.33;;
3781;SDS011;6881;49.962;7.718;2023-03-29T04:37:38;6.83;;;4.47;;
3781;SDS011;6881;49.962;7.718;2023-03-29T04:40:04;5.80;;;4.33;;
3781;SDS011;6881;49.962;7.718;2023-03-29T04:42:33;8.03;;;4.30;;
3781;SDS011;6881;49.962;7.718;2023-03-29T04:44:59;8.43;;;4.10;;
3781;SDS011;6881;49.962;7.718;2023-03-29T04:47:24;6.23;;;4.47;;
3781;SDS011;6881;49.962;7.718;2023-03-29T04:49:53;5.67;;;4.50;;
3781;SDS011;6881;49.962;7.718;2023-03-29T04:52:18;9.33;;;4.87;;
3781;SDS011;6881;49.962;7.718;2023-03-29T04:54:44;6.73;;;4.80;;
3781;SDS011;6881;49.962;7.718;2023-03-29T04:57:09;5.70;;;4.10;;
3781;SDS011;6881;49.962;7.718;2023-03-29T04:59:35;6.90;;;4.97;;
3781;SDS011;6881;49.962;7.718;2023-03-29T05:02:00;6.33;;;4.67;;
3781;SDS011;6881;49.962;7.718;2023-03-29T05:04:27;6.17;;;3.80;;
3781;SDS011;6881;49.962;7.718;2023-03-29T05:06:53;7.67;;;4.67;;
3781;SDS011;6881;49.962;7.718;2023-03-29T05:09:19;8.50;;;5.10;;
3781;SDS011;6881;49.962;7.718;2023-03-29T05:11:45;4.87;;;4.10;;
3781;SDS011;6881;49.962;7.718;2023-03-29T05:14:10;5.00;;;4.27;;
3781;SDS011;6881;49.962;7.718;2023-03-29T05:16:35;6.07;;;4.60;;
3781;SDS011;6881;49.962;7.718;2023-03-29T05:19:02;5.40;;;4.70;;
3781;SDS011;6881;49.962;7.718;2023-03-29T05:21:27;5.73;;;4.90;;
3781;SDS011;6881;49.962;7.718;2023-03-29T05:23:53;3.83;;;3.53;;
3781;SDS011;6881;49.962;7.718;2023-03-29T05:26:22;5.33;;;4.70;;
3781;SDS011;6881;49.962;7.718;2023-03-29T05:28:48;5.83;;;4.50;;
3781;SDS011;6881;49.962;7.718;2023-03-29T05:31:13;6.80;;;4.87;;
3781;SDS011;6881;49.962;7.718;2023-03-29T05:33:39;8.40;;;5.77;;
3781;SDS011;6881;49.962;7.718;2023-03-29T05:38:32;6.00;;;4.90;;
3781;SDS011;6881;49.962;7.718;2023-03-29T05:40:57;6.20;;;4.90;;
3781;SDS011;6881;49.962;7.718;2023-03-29T05:43:23;6.07;;;5.30;;
3781;SDS011;6881;49.962;7.718;2023-03-29T05:45:51;5.77;;;4.17;;
3781;SDS011;6881;49.962;7.718;2023-03-29T05:48:17;8.57;;;4.93;;
3781;SDS011;6881;49.962;7.718;2023-03-29T05:50:46;6.80;;;5.10;;
3781;SDS011;6881;49.962;7.718;2023-03-29T05:53:12;6.67;;;5.23;;
3781;SDS011;6881;49.962;7.718;2023-03-29T05:55:38;6.20;;;5.40;;
3781;SDS011;6881;49.962;7.718;2023-03-29T05:58:03;5.40;;;4.87;;
3781;SDS011;6881;49.962;7.718;2023-03-29T06:00:29;6.70;;;4.40;;
3781;SDS011;6881;49.962;7.718;2023-03-29T06:02:55;4.93;;;4.00;;
3781;SDS011;6881;49.962;7.718;2023-03-29T06:05:21;4.30;;;3.90;;
3781;SDS011;6881;49.962;7.718;2023-03-29T06:07:46;10.57;;;4.80;;
3781;SDS011;6881;49.962;7.718;2023-03-29T06:10:13;5.13;;;4.53;;
3781;SDS011;6881;49.962;7.718;2023-03-29T06:12:39;6.20;;;3.93;;
3781;SDS011;6881;49.962;7.718;2023-03-29T06:15:05;9.47;;;5.70;;
3781;SDS011;6881;49.962;7.718;2023-03-29T06:17:32;7.20;;;5.03;;
3781;SDS011;6881;49.962;7.718;2023-03-29T06:19:58;6.17;;;4.33;;
3781;SDS011;6881;49.962;7.718;2023-03-29T06:22:24;4.67;;;4.10;;
3781;SDS011;6881;49.962;7.718;2023-03-29T06:24:49;5.57;;;4.00;;
3781;SDS011;6881;49.962;7.718;2023-03-29T06:27:15;5.17;;;4.10;;
3781;SDS011;6881;49.962;7.718;2023-03-29T06:29:40;4.23;;;3.40;;
3781;SDS011;6881;49.962;7.718;2023-03-29T06:32:05;4.03;;;3.70;;
3781;SDS011;6881;49.962;7.718;2023-03-29T06:34:31;5.00;;;4.03;;
3781;SDS011;6881;49.962;7.718;2023-03-29T06:36:56;6.60;;;3.67;;
3781;SDS011;6881;49.962;7.718;2023-03-29T06:39:22;7.20;;;3.70;;
3781;SDS011;6881;49.962;7.718;2023-03-29T06:41:47;4.40;;;3.80;;
3781;SDS011;6881;49.962;7.718;2023-03-29T06:44:13;6.87;;;4.10;;
3781;SDS011;6881;49.962;7.718;2023-03-29T06:46:39;7.20;;;4.90;;
3781;SDS011;6881;49.962;7.718;2023-03-29T06:49:04;5.20;;;3.67;;
3781;SDS011;6881;49.962;7.718;2023-03-29T06:51:30;6.23;;;4.13;;
3781;SDS011;6881;49.962;7.718;2023-03-29T06:53:55;6.77;;;5.30;;
3781;SDS011;6881;49.962;7.718;2023-03-29T06:56:20;6.23;;;4.13;;
3781;SDS011;6881;49.962;7.718;2023-03-29T06:58:46;5.80;;;4.67;;
3781;SDS011;6881;49.962;7.718;2023-03-29T07:01:12;6.83;;;4.17;;
3781;SDS011;6881;49.962;7.718;2023-03-29T07:03:38;6.80;;;4.30;;
3781;SDS011;6881;49.962;7.718;2023-03-29T07:06:04;6.67;;;4.20;;
3781;SDS011;6881;49.962;7.718;2023-03-29T07:08:37;8.63;;;4.87;;
3781;SDS011;6881;49.962;7.718;2023-03-29T07:11:08;5.03;;;3.60;;
3781;SDS011;6881;49.962;7.718;2023-03-29T07:13:36;5.17;;;3.40;;
3781;SDS011;6881;49.962;7.718;2023-03-29T07:16:02;3.90;;;3.03;;
3781;SDS011;6881;49.962;7.718;2023-03-29T07:18:27;6.23;;;3.43;;
3781;SDS011;6881;49.962;7.718;2023-03-29T07:20:53;5.83;;;3.00;;
3781;SDS011;6881;49.962;7.718;2023-03-29T07:23:18;5.57;;;3.57;;
3781;SDS011;6881;49.962;7.718;2023-03-29T07:25:44;5.07;;;3.80;;
3781;SDS011;6881;49.962;7.718;2023-03-29T07:28:10;5.83;;;3.80;;
3781;SDS011;6881;49.962;7.718;2023-03-29T07:30:35;3.80;;;2.93;;
3781;SDS011;6881;49.962;7.718;2023-03-29T07:33:01;6.20;;;3.10;;
3781;SDS011;6881;49.962;7.718;2023-03-29T07:35:26;3.33;;;3.03;;
3781;SDS011;6881;49.962;7.718;2023-03-29T07:37:52;3.67;;;3.30;;
3781;SDS011;6881;49.962;7.718;2023-03-29T07:40:19;3.83;;;3.10;;
3781;SDS011;6881;49.962;7.718;2023-03-29T07:42:51;5.37;;;3.67;;
3781;SDS011;6881;49.962;7.718;2023-03-29T07:45:18;4.97;;;3.00;;
3781;SDS011;6881;49.962;7.718;2023-03-29T07:47:45;3.53;;;2.90;;
3781;SDS011;6881;49.962;7.718;2023-03-29T07:50:11;4.63;;;3.50;;
3781;SDS011;6881;49.962;7.718;2023-03-29T07:52:37;4.67;;;3.00;;
3781;SDS011;6881;49.962;7.718;2023-03-29T07:55:07;6.47;;;3.07;;
3781;SDS011;6881;49.962;7.718;2023-03-29T07:57:34;3.77;;;3.17;;
3781;SDS011;6881;49.962;7.718;2023-03-29T07:59:59;6.23;;;3.60;;
3781;SDS011;6881;49.962;7.718;2023-03-29T08:02:25;4.23;;;3.17;;
3781;SDS011;6881;49.962;7.718;2023-03-29T08:04:52;3.60;;;2.90;;
3781;SDS011;6881;49.962;7.718;2023-03-29T08:07:17;4.73;;;3.87;;
3781;SDS011;6881;49.962;7.718;2023-03-29T08:09:43;5.87;;;3.80;;
3781;SDS011;6881;49.962;7.718;2023-03-29T08:12:09;3.73;;;3.30;;
3781;SDS011;6881;49.962;7.718;2023-03-29T08:14:34;3.60;;;2.87;;
3781;SDS011;6881;49.962;7.718;2023-03-29T08:17:00;2.93;;;2.53;;
3781;SDS011;6881;49.962;7.718;2023-03-29T08:19:26;4.17;;;3.73;;
3781;SDS011;6881;49.962;7.718;2023-03-29T08:21:52;6.33;;;3.20;;
3781;SDS011;6881;49.962;7.718;2023-03-29T08:24:17;5.60;;;3.00;;
3781;SDS011;6881;49.962;7.718;2023-03-29T08:26:43;4.90;;;2.40;;
3781;SDS011;6881;49.962;7.718;2023-03-29T08:29:08;3.30;;;2.83;;
3781;SDS011;6881;49.962;7.718;2023-03-29T08:31:34;3.30;;;3.00;;
3781;SDS011;6881;49.962;7.718;2023-03-29T08:33:59;4.43;;;3.73;;
3781;SDS011;6881;49.962;7.718;2023-03-29T08:36:25;4.97;;;4.50;;
3781;SDS011;6881;49.962;7.718;2023-03-29T08:38:51;6.07;;;3.63;;
3781;SDS011;6881;49.962;7.718;2023-03-29T08:41:24;5.00;;;3.73;;
3781;SDS011;6881;49.962;7.718;2023-03-29T08:43:55;6.07;;;4.50;;
3781;SDS011;6881;49.962;7.718;2023-03-29T08:48:55;4.93;;;3.23;;
3781;SDS011;6881;49.962;7.718;2023-03-29T08:54:03;2.90;;;2.60;;
3781;SDS011;6881;49.962;7.718;2023-03-29T08:56:30;4.07;;;2.90;;
3781;SDS011;6881;49.962;7.718;2023-03-29T08:58:57;4.00;;;3.00;;
3781;SDS011;6881;49.962;7.718;2023-03-29T09:01:23;4.27;;;2.90;;
3781;SDS011;6881;49.962;7.718;2023-03-29T09:06:37;3.70;;;2.40;;
3781;SDS011;6881;49.962;7.718;2023-03-29T09:09:04;3.63;;;2.57;;
3781;SDS011;6881;49.962;7.718;2023-03-29T09:11:41;3.30;;;2.17;;
3781;SDS011;6881;49.962;7.718;2023-03-29T09:14:53;3.43;;;2.30;;
3781;SDS011;6881;49.962;7.718;2023-03-29T09:22:58;4.70;;;2.80;;
3781;SDS011;6881;49.962;7.718;2023-03-29T09:28:18;3.00;;;2.43;;
3781;SDS011;6881;49.962;7.718;2023-03-29T09:30:56;3.37;;;2.40;;
3781;SDS011;6881;49.962;7.718;2023-03-29T09:36:23;1.97;;;1.60;;
3781;SDS011;6881;49.962;7.718;2023-03-29T09:39:01;1.77;;;1.60;;
3781;SDS011;6881;49.962;7.718;2023-03-29T09:41:29;2.57;;;2.10;;
3781;SDS011;6881;49.962;7.718;2023-03-29T09:43:56;3.90;;;2.57;;
3781;SDS011;6881;49.962;7.718;2023-03-29T09:46:29;2.60;;;2.10;;
3781;SDS011;6881;49.962;7.718;2023-03-29T09:48:58;2.60;;;2.00;;
3781;SDS011;6881;49.962;7.718;2023-03-29T09:51:25;4.30;;;2.40;;
3781;SDS011;6881;49.962;7.718;2023-03-29T09:53:53;2.20;;;2.00;;
3781;SDS011;6881;49.962;7.718;2023-03-29T09:56:20;3.57;;;2.67;;
3781;SDS011;6881;49.962;7.718;2023-03-29T09:58:45;3.43;;;2.10;;
3781;SDS011;6881;49.962;7.718;2023-03-29T10:01:11;3.60;;;2.00;;
3781;SDS011;6881;49.962;7.718;2023-03-29T10:03:39;2.43;;;2.23;;
3781;SDS011;6881;49.962;7.718;2023-03-29T10:06:05;3.33;;;2.10;;
3781;SDS011;6881;49.962;7.718;2023-03-29T10:11:08;4.10;;;2.33;;
3781;SDS011;6881;49.962;7.718;2023-03-29T10:13:42;2.83;;;2.40;;
3781;SDS011;6881;49.962;7.718;2023-03-29T10:16:15;4.80;;;2.13;;
3781;SDS011;6881;49.962;7.718;2023-03-29T10:18:42;3.17;;;2.00;;
3781;SDS011;6881;49.962;7.718;2023-03-29T10:21:10;3.47;;;2.13;;
3781;SDS011;6881;49.962;7.718;2023-03-29T10:23:37;3.63;;;2.20;;
3781;SDS011;6881;49.962;7.718;2023-03-29T10:26:03;3.63;;;2.70;;
3781;SDS011;6881;49.962;7.718;2023-03-29T10:28:30;6.23;;;2.50;;
3781;SDS011;6881;49.962;7.718;2023-03-29T10:30:57;4.50;;;2.63;;
3781;SDS011;6881;49.962;7.718;2023-03-29T10:33:26;3.17;;;2.30;;
3781;SDS011;6881;49.962;7.718;2023-03-29T10:35:55;2.70;;;2.40;;
3781;SDS011;6881;49.962;7.718;2023-03-29T10:38:22;4.00;;;2.43;;
3781;SDS011;6881;49.962;7.718;2023-03-29T10:40:49;4.13;;;2.93;;
3781;SDS011;6881;49.962;7.718;2023-03-29T10:45:41;2.70;;;2.00;;
3781;SDS011;6881;49.962;7.718;2023-03-29T10:48:13;2.60;;;2.33;;
3781;SDS011;6881;49.962;7.718;2023-03-29T10:50:40;2.40;;;2.20;;
3781;SDS011;6881;49.962;7.718;2023-03-29T10:53:25;4.30;;;3.00;;
3781;SDS011;6881;49.962;7.718;2023-03-29T11:06:45;5.13;;;2.73;;
3781;SDS011;6881;49.962;7.718;2023-03-29T11:14:50;3.93;;;2.30;;
3781;SDS011;6881;49.962;7.718;2023-03-29T11:17:23;3.10;;;2.30;;
3781;SDS011;6881;49.962;7.718;2023-03-29T11:21:02;3.93;;;2.07;;
3781;SDS011;6881;49.962;7.718;2023-03-29T11:31:39;1.70;;;1.60;;
3781;SDS011;6881;49.962;7.718;2023-03-29T11:37:14;4.70;;;3.77;;
3781;SDS011;6881;49.962;7.718;2023-03-29T11:42:22;4.87;;;3.50;;
3781;SDS011;6881;49.962;7.718;2023-03-29T11:44:50;2.27;;;2.07;;
3781;SDS011;6881;49.962;7.718;2023-03-29T11:47:21;2.70;;;1.60;;
3781;SDS011;6881;49.962;7.718;2023-03-29T11:49:53;3.00;;;2.23;;
3781;SDS011;6881;49.962;7.718;2023-03-29T11:52:26;2.50;;;1.83;;
3781;SDS011;6881;49.962;7.718;2023-03-29T11:54:57;4.73;;;3.00;;
3781;SDS011;6881;49.962;7.718;2023-03-29T12:00:16;2.60;;;2.40;;
3781;SDS011;6881;49.962;7.718;2023-03-29T12:02:57;2.50;;;2.00;;
3781;SDS011;6881;49.962;7.718;2023-03-29T12:05:35;2.23;;;1.83;;
3781;SDS011;6881;49.962;7.718;2023-03-29T12:08:06;4.63;;;2.50;;
3781;SDS011;6881;49.962;7.718;2023-03-29T12:10:35;2.30;;;2.10;;
3781;SDS011;6881;49.962;7.718;2023-03-29T12:13:11;1.93;;;1.77;;
3781;SDS011;6881;49.962;7.718;2023-03-29T12:18:31;6.23;;;3.20;;
3781;SDS011;6881;49.962;7.718;2023-03-29T12:21:01;4.00;;;3.57;;
3781;SDS011;6881;49.962;7.718;2023-03-29T12:23:29;6.20;;;4.70;;
3781;SDS011;6881;49.962;7.718;2023-03-29T12:34:03;2.83;;;2.27;;
3781;SDS011;6881;49.962;7.718;2023-03-29T12:39:28;6.37;;;2.90;;
3781;SDS011;6881;49.962;7.718;2023-03-29T12:44:49;4.50;;;2.30;;
3781;SDS011;6881;49.962;7.718;2023-03-29T12:47:18;3.90;;;3.00;;
3781;SDS011;6881;49.962;7.718;2023-03-29T12:49:45;4.30;;;3.33;;
3781;SDS011;6881;49.962;7.718;2023-03-29T12:52:22;3.03;;;1.83;;
3781;SDS011;6881;49.962;7.718;2023-03-29T12:54:56;5.57;;;2.83;;
3781;SDS011;6881;49.962;7.718;2023-03-29T12:59:52;5.20;;;2.30;;
3781;SDS011;6881;49.962;7.718;2023-03-29T13:04:50;4.67;;;2.57;;
3781;SDS011;6881;49.962;7.718;2023-03-29T13:09:56;3.67;;;2.13;;
3781;SDS011;6881;49.962;7.718;2023-03-29T13:14:52;4.30;;;3.40;;
3781;SDS011;6881;49.962;7.718;2023-03-29T13:28:02;6.10;;;4.53;;
3781;SDS011;6881;49.962;7.718;2023-03-29T13:30:56;9.13;;;6.37;;
3781;SDS011;6881;49.962;7.718;2023-03-29T13:38:42;5.23;;;4.10;;
3781;SDS011;6881;49.962;7.718;2023-03-29T13:41:24;5.60;;;2.67;;
3781;SDS011;6881;49.962;7.718;2023-03-29T13:43:53;3.17;;;2.50;;
3781;SDS011;6881;49.962;7.718;2023-03-29T13:51:33;5.10;;;2.80;;
3781;SDS011;6881;49.962;7.718;2023-03-29T13:56:47;3.23;;;2.50;;
3781;SDS011;6881;49.962;7.718;2023-03-29T13:59:19;1.90;;;1.80;;
3781;SDS011;6881;49.962;7.718;2023-03-29T14:01:52;2.30;;;2.20;;
3781;SDS011;6881;49.962;7.718;2023-03-29T14:04:25;3.50;;;2.80;;
3781;SDS011;6881;49.962;7.718;2023-03-29T14:06:54;7.13;;;4.70;;
3781;SDS011;6881;49.962;7.718;2023-03-29T14:09:22;5.60;;;3.77;;
3781;SDS011;6881;49.962;7.718;2023-03-29T14:11:50;3.10;;;2.60;;
3781;SDS011;6881;49.962;7.718;2023-03-29T14:14:15;3.83;;;2.97;;
3781;SDS011;6881;49.962;7.718;2023-03-29T14:16:41;5.13;;;4.50;;
3781;SDS011;6881;49.962;7.718;2023-03-29T14:19:17;2.43;;;2.23;;
3781;SDS011;6881;49.962;7.718;2023-03-29T14:21:45;4.57;;;2.50;;
3781;SDS011;6881;49.962;7.718;2023-03-29T14:24:20;3.27;;;2.97;;
3781;SDS011;6881;49.962;7.718;2023-03-29T14:26:47;5.50;;;3.03;;
3781;SDS011;6881;49.962;7.718;2023-03-29T14:29:12;3.20;;;2.90;;
3781;SDS011;6881;49.962;7.718;2023-03-29T14:31:38;6.70;;;3.60;;
3781;SDS011;6881;49.962;7.718;2023-03-29T14:34:05;5.30;;;3.33;;
3781;SDS011;6881;49.962;7.718;2023-03-29T14:36:35;4.50;;;3.20;;
3781;SDS011;6881;49.962;7.718;2023-03-29T14:41:48;4.23;;;2.60;;
3781;SDS011;6881;49.962;7.718;2023-03-29T14:44:15;3.20;;;2.50;;
3781;SDS011;6881;49.962;7.718;2023-03-29T14:46:40;2.57;;;2.20;;
3781;SDS011;6881;49.962;7.718;2023-03-29T14:49:08;4.27;;;3.00;;
3781;SDS011;6881;49.962;7.718;2023-03-29T14:51:34;2.90;;;2.60;;
3781;SDS011;6881;49.962;7.718;2023-03-29T14:54:00;3.57;;;2.80;;
3781;SDS011;6881;49.962;7.718;2023-03-29T14:56:27;2.60;;;2.40;;
3781;SDS011;6881;49.962;7.718;2023-03-29T14:58:54;5.57;;;3.47;;
3781;SDS011;6881;49.962;7.718;2023-03-29T15:01:21;4.33;;;2.53;;
3781;SDS011;6881;49.962;7.718;2023-03-29T15:03:50;2.80;;;2.60;;
3781;SDS011;6881;49.962;7.718;2023-03-29T15:06:38;4.13;;;2.63;;
3781;SDS011;6881;49.962;7.718;2023-03-29T15:09:05;4.27;;;2.83;;
3781;SDS011;6881;49.962;7.718;2023-03-29T15:11:33;4.40;;;3.20;;
3781;SDS011;6881;49.962;7.718;2023-03-29T15:14:01;5.17;;;3.57;;
3781;SDS011;6881;49.962;7.718;2023-03-29T15:16:28;4.63;;;3.50;;
3781;SDS011;6881;49.962;7.718;2023-03-29T15:18:57;4.10;;;2.97;;
3781;SDS011;6881;49.962;7.718;2023-03-29T15:21:26;4.27;;;3.13;;
3781;SDS011;6881;49.962;7.718;2023-03-29T15:23:56;4.07;;;3.10;;
3781;SDS011;6881;49.962;7.718;2023-03-29T15:26:24;3.00;;;2.70;;
3781;SDS011;6881;49.962;7.718;2023-03-29T15:28:59;3.50;;;2.80;;
3781;SDS011;6881;49.962;7.718;2023-03-29T15:31:31;2.30;;;2.10;;
3781;SDS011;6881;49.962;7.718;2023-03-29T15:34:05;4.13;;;2.70;;
3781;SDS011;6881;49.962;7.718;2023-03-29T15:36:32;3.53;;;2.40;;
3781;SDS011;6881;49.962;7.718;2023-03-29T15:38:58;2.33;;;2.13;;
3781;SDS011;6881;49.962;7.718;2023-03-29T15:41:23;7.13;;;3.50;;
3781;SDS011;6881;49.962;7.718;2023-03-29T15:43:50;7.50;;;4.77;;
3781;SDS011;6881;49.962;7.718;2023-03-29T15:46:15;6.63;;;3.80;;
3781;SDS011;6881;49.962;7.718;2023-03-29T15:48:41;4.80;;;2.60;;
3781;SDS011;6881;49.962;7.718;2023-03-29T15:51:08;2.90;;;2.40;;
3781;SDS011;6881;49.962;7.718;2023-03-29T15:53:34;3.00;;;2.43;;
3781;SDS011;6881;49.962;7.718;2023-03-29T15:56:00;3.40;;;3.10;;
3781;SDS011;6881;49.962;7.718;2023-03-29T15:58:28;2.23;;;2.03;;
3781;SDS011;6881;49.962;7.718;2023-03-29T16:01:20;2.20;;;2.00;;
3781;SDS011;6881;49.962;7.718;2023-03-29T16:03:47;2.93;;;1.90;;
3781;SDS011;6881;49.962;7.718;2023-03-29T16:06:13;2.10;;;1.97;;
3781;SDS011;6881;49.962;7.718;2023-03-29T16:08:38;2.40;;;2.20;;
3781;SDS011;6881;49.962;7.718;2023-03-29T16:11:05;2.10;;;1.97;;
3781;SDS011;6881;49.962;7.718;2023-03-29T16:13:31;3.80;;;2.30;;
3781;SDS011;6881;49.962;7.718;2023-03-29T16:15:56;3.00;;;2.30;;
3781;SDS011;6881;49.962;7.718;2023-03-29T16:18:21;3.20;;;2.50;;
3781;SDS011;6881;49.962;7.718;2023-03-29T16:20:47;3.03;;;2.33;;
3781;SDS011;6881;49.962;7.718;2023-03-29T16:23:12;5.17;;;2.90;;
3781;SDS011;6881;49.962;7.718;2023-03-29T16:25:38;4.27;;;2.13;;
3781;SDS011;6881;49.962;7.718;2023-03-29T16:28:05;3.90;;;2.40;;
3781;SDS011;6881;49.962;7.718;2023-03-29T16:30:32;1.87;;;1.63;;
3781;SDS011;6881;49.962;7.718;2023-03-29T16:32:58;2.43;;;2.10;;
3781;SDS011;6881;49.962;7.718;2023-03-29T16:35:25;1.87;;;1.67;;
3781;SDS011;6881;49.962;7.718;2023-03-29T16:37:51;3.03;;;2.20;;
3781;SDS011;6881;49.962;7.718;2023-03-29T16:40:17;4.50;;;2.30;;
3781;SDS011;6881;49.962;7.718;2023-03-29T16:42:42;3.13;;;2.30;;
3781;SDS011;6881;49.962;7.718;2023-03-29T16:45:12;5.00;;;2.33;;
3781;SDS011;6881;49.962;7.718;2023-03-29T16:47:38;2.87;;;2.30;;
3781;SDS011;6881;49.962;7.718;2023-03-29T16:50:07;2.33;;;1.60;;
3781;SDS011;6881;49.962;7.718;2023-03-29T16:52:33;5.00;;;2.20;;
3781;SDS011;6881;49.962;7.718;2023-03-29T16:54:59;3.77;;;3.17;;
3781;SDS011;6881;49.962;7.718;2023-03-29T16:57:24;4.93;;;2.20;;
3781;SDS011;6881;49.962;7.718;2023-03-29T16:59:50;3.93;;;2.20;;
3781;SDS011;6881;49.962;7.718;2023-03-29T17:02:15;2.40;;;1.97;;
3781;SDS011;6881;49.962;7.718;2023-03-29T17:04:41;4.80;;;2.70;;
3781;SDS011;6881;49.962;7.718;2023-03-29T17:07:06;2.30;;;1.97;;
3781;SDS011;6881;49.962;7.718;2023-03-29T17:09:32;3.77;;;2.10;;
3781;SDS011;6881;49.962;7.718;2023-03-29T17:11:57;2.13;;;1.90;;
3781;SDS011;6881;49.962;7.718;2023-03-29T17:14:22;2.60;;;2.40;;
3781;SDS011;6881;49.962;7.718;2023-03-29T17:16:49;2.93;;;2.50;;
3781;SDS011;6881;49.962;7.718;2023-03-29T17:19:16;3.50;;;2.23;;
3781;SDS011;6881;49.962;7.718;2023-03-29T17:21:41;2.30;;;2.10;;
3781;SDS011;6881;49.962;7.718;2023-03-29T17:24:07;4.10;;;2.63;;
3781;SDS011;6881;49.962;7.718;2023-03-29T17:26:33;4.40;;;2.53;;
3781;SDS011;6881;49.962;7.718;2023-03-29T17:28:59;2.73;;;2.00;;
3781;SDS011;6881;49.962;7.718;2023-03-29T17:31:24;3.97;;;2.57;;
3781;SDS011;6881;49.962;7.718;2023-03-29T17:33:49;3.00;;;2.70;;